createdAt,value
2022-11-30T00:00:09.857Z,919.15
2022-11-30T00:01:09.861Z,919.17
2022-11-30T00:02:09.840Z,919.16
2022-11-30T00:03:09.919Z,919.14
2022-11-30T00:04:09.781Z,919.13
2022-11-30T00:05:09.988Z,919.13
2022-11-30T00:06:09.931Z,919.13
2022-11-30T00:07:09.852Z,919.15
2022-11-30T00:08:09.763Z,919.15
2022-11-30T00:09:09.754Z,919.15
2022-11-30T00:10:09.711Z,919.16
2022-11-30T00:11:09.664Z,919.18
2022-11-30T00:12:09.630Z,919.19
2022-11-30T00:13:09.631Z,919.19
2022-11-30T00:14:09.645Z,919.19
2022-11-30T00:15:09.685Z,919.20
2022-11-30T00:16:09.673Z,919.22
2022-11-30T00:17:09.657Z,919.22
2022-11-30T00:18:09.562Z,919.25
2022-11-30T00:19:09.727Z,919.28
2022-11-30T00:20:09.574Z,919.28
2022-11-30T00:21:09.574Z,919.30
2022-11-30T00:22:10.310Z,919.32
2022-11-30T00:23:09.651Z,919.33
2022-11-30T00:24:09.539Z,919.34
2022-11-30T00:25:09.510Z,919.34
2022-11-30T00:26:09.718Z,919.34
2022-11-30T00:27:09.458Z,919.36
2022-11-30T00:28:09.627Z,919.37
2022-11-30T00:29:09.485Z,919.39
2022-11-30T00:30:09.438Z,919.40
2022-11-30T00:31:09.611Z,919.39
2022-11-30T00:32:09.458Z,919.38
2022-11-30T00:33:09.457Z,919.38
2022-11-30T00:34:09.463Z,919.38
2022-11-30T00:35:09.410Z,919.38
2022-11-30T00:36:09.371Z,919.36
2022-11-30T00:37:09.435Z,919.34
2022-11-30T00:38:09.390Z,919.30
2022-11-30T00:39:09.372Z,919.30
2022-11-30T00:40:09.461Z,919.29
2022-11-30T00:41:09.349Z,919.28
2022-11-30T00:42:09.320Z,919.27
2022-11-30T00:43:09.300Z,919.26
2022-11-30T00:44:09.365Z,919.26
2022-11-30T00:45:09.491Z,919.24
2022-11-30T00:46:09.563Z,919.24
2022-11-30T00:47:09.286Z,919.22
2022-11-30T00:48:09.331Z,919.21
2022-11-30T00:49:09.302Z,919.18
2022-11-30T00:50:09.297Z,919.18
2022-11-30T00:51:09.276Z,919.19
2022-11-30T00:52:09.212Z,919.20
2022-11-30T00:53:09.232Z,919.18
2022-11-30T00:54:09.222Z,919.18
2022-11-30T00:55:09.172Z,919.20
2022-11-30T00:56:09.183Z,919.21
2022-11-30T00:57:09.255Z,919.21
2022-11-30T00:58:09.183Z,919.22
2022-11-30T00:59:09.211Z,919.22
2022-11-30T01:00:09.162Z,919.20
2022-11-30T01:01:09.215Z,919.19
2022-11-30T01:02:09.189Z,919.17
2022-11-30T01:03:09.242Z,919.18
2022-11-30T01:04:09.191Z,919.18
2022-11-30T01:05:09.142Z,919.17
2022-11-30T01:06:09.049Z,919.17
2022-11-30T01:07:09.054Z,919.17
2022-11-30T01:08:09.066Z,919.17
2022-11-30T01:09:09.068Z,919.17
2022-11-30T01:10:09.170Z,919.18
2022-11-30T01:11:09.077Z,919.18
2022-11-30T01:12:08.985Z,919.17
2022-11-30T01:13:08.993Z,919.15
2022-11-30T01:14:09.004Z,919.13
2022-11-30T01:15:09.002Z,919.12
2022-11-30T01:16:09.040Z,919.11
2022-11-30T01:17:09.020Z,919.10
2022-11-30T01:18:08.922Z,919.10
2022-11-30T01:19:08.934Z,919.08
2022-11-30T01:20:08.930Z,919.09
2022-11-30T01:21:08.937Z,919.11
2022-11-30T01:22:08.899Z,919.08
2022-11-30T01:23:08.849Z,919.06
2022-11-30T01:24:08.948Z,919.05
2022-11-30T01:25:08.921Z,919.03
2022-11-30T01:26:08.881Z,919.01
2022-11-30T01:27:08.890Z,919.00
2022-11-30T01:28:08.966Z,918.99
2022-11-30T01:29:08.780Z,918.98
2022-11-30T01:30:08.801Z,918.98
2022-11-30T01:31:08.832Z,918.97
2022-11-30T01:32:08.913Z,918.97
2022-11-30T01:33:08.895Z,918.98
2022-11-30T01:34:08.813Z,918.98
2022-11-30T01:35:08.828Z,919.00
2022-11-30T01:36:08.823Z,918.99
2022-11-30T01:37:08.759Z,918.99
2022-11-30T01:38:08.802Z,918.98
2022-11-30T01:39:08.709Z,918.98
2022-11-30T01:40:08.720Z,918.98
2022-11-30T01:41:09.161Z,918.98
2022-11-30T01:42:08.760Z,918.96
2022-11-30T01:43:08.733Z,918.96
2022-11-30T01:44:08.672Z,918.94
2022-11-30T01:45:08.675Z,918.92
2022-11-30T01:46:08.726Z,918.90
2022-11-30T01:47:09.100Z,918.88
2022-11-30T01:48:08.702Z,918.86
2022-11-30T01:49:08.711Z,918.85
2022-11-30T01:50:08.715Z,918.83
2022-11-30T01:51:08.623Z,918.78
2022-11-30T01:52:08.625Z,918.78
2022-11-30T01:53:08.636Z,918.78
2022-11-30T01:54:08.629Z,918.74
2022-11-30T01:55:08.637Z,918.72
2022-11-30T01:56:08.510Z,918.70
2022-11-30T01:57:08.662Z,918.68
2022-11-30T01:58:08.562Z,918.66
2022-11-30T01:59:08.675Z,918.63
2022-11-30T02:00:08.571Z,918.62
2022-11-30T02:01:08.609Z,918.60
2022-11-30T02:02:08.622Z,918.60
2022-11-30T02:03:08.490Z,918.59
2022-11-30T02:04:08.498Z,918.57
2022-11-30T02:05:08.608Z,918.55
2022-11-30T02:06:08.512Z,918.56
2022-11-30T02:07:08.565Z,918.55
2022-11-30T02:08:08.673Z,918.56
2022-11-30T02:09:08.435Z,918.59
2022-11-30T02:10:08.646Z,918.59
2022-11-30T02:11:08.441Z,918.61
2022-11-30T02:12:08.443Z,918.62
2022-11-30T02:13:09.070Z,918.64
2022-11-30T02:14:08.364Z,918.65
2022-11-30T02:15:08.491Z,918.66
2022-11-30T02:16:08.414Z,918.65
2022-11-30T02:17:08.293Z,918.66
2022-11-30T02:18:08.313Z,918.66
2022-11-30T02:19:08.216Z,918.66
2022-11-30T02:20:08.223Z,918.67
2022-11-30T02:21:08.286Z,918.68
2022-11-30T02:22:08.289Z,918.67
2022-11-30T02:23:08.224Z,918.67
2022-11-30T02:24:08.193Z,918.68
2022-11-30T02:25:08.203Z,918.68
2022-11-30T02:26:08.219Z,918.71
2022-11-30T02:27:10.170Z,918.71
2022-11-30T02:28:08.227Z,918.74
2022-11-30T02:29:08.124Z,918.73
2022-11-30T02:30:08.146Z,918.74
2022-11-30T02:31:08.188Z,918.74
2022-11-30T02:32:08.147Z,918.73
2022-11-30T02:33:08.156Z,918.74
2022-11-30T02:34:08.176Z,918.72
2022-11-30T02:35:08.069Z,918.71
2022-11-30T02:36:08.075Z,918.71
2022-11-30T02:37:08.081Z,918.70
2022-11-30T02:38:08.090Z,918.68
2022-11-30T02:39:08.093Z,918.67
2022-11-30T02:40:08.105Z,918.64
2022-11-30T02:41:08.009Z,918.60
2022-11-30T02:42:08.022Z,918.59
2022-11-30T02:43:08.016Z,918.58
2022-11-30T02:44:08.030Z,918.55
2022-11-30T02:45:08.135Z,918.51
2022-11-30T02:46:08.074Z,918.50
2022-11-30T02:47:07.948Z,918.49
2022-11-30T02:48:08.974Z,918.48
2022-11-30T02:49:07.967Z,918.49
2022-11-30T02:50:07.965Z,918.50
2022-11-30T02:51:07.970Z,918.49
2022-11-30T02:52:08.594Z,918.50
2022-11-30T02:53:07.889Z,918.50
2022-11-30T02:54:07.895Z,918.52
2022-11-30T02:55:07.894Z,918.50
2022-11-30T02:56:07.911Z,918.51
2022-11-30T02:57:07.910Z,918.50
2022-11-30T02:58:07.927Z,918.48
2022-11-30T02:59:07.822Z,918.50
2022-11-30T03:00:07.832Z,918.48
2022-11-30T03:01:07.912Z,918.48
2022-11-30T03:02:09.602Z,918.48
2022-11-30T03:03:07.877Z,918.47
2022-11-30T03:04:07.831Z,918.47
2022-11-30T03:05:07.741Z,918.47
2022-11-30T03:06:07.746Z,918.47
2022-11-30T03:07:07.780Z,918.46
2022-11-30T03:08:07.760Z,918.45
2022-11-30T03:09:07.891Z,918.46
2022-11-30T03:10:07.683Z,918.43
2022-11-30T03:11:07.676Z,918.41
2022-11-30T03:12:07.686Z,918.39
2022-11-30T03:13:07.688Z,918.39
2022-11-30T03:14:07.691Z,918.40
2022-11-30T03:15:08.218Z,918.38
2022-11-30T03:16:07.693Z,918.33
2022-11-30T03:17:07.620Z,918.31
2022-11-30T03:18:07.619Z,918.26
2022-11-30T03:19:07.586Z,918.23
2022-11-30T03:20:07.637Z,918.22
2022-11-30T03:21:07.695Z,918.16
2022-11-30T03:22:07.587Z,918.15
2022-11-30T03:23:07.551Z,918.11
2022-11-30T03:24:07.563Z,918.09
2022-11-30T03:25:07.613Z,918.03
2022-11-30T03:26:07.549Z,918.02
2022-11-30T03:27:07.513Z,918.00
2022-11-30T03:28:07.591Z,917.98
2022-11-30T03:29:07.493Z,917.96
2022-11-30T03:30:07.495Z,917.93
2022-11-30T03:31:07.548Z,917.91
2022-11-30T03:32:07.445Z,917.90
2022-11-30T03:33:07.456Z,917.89
2022-11-30T03:34:07.424Z,917.89
2022-11-30T03:35:07.440Z,917.84
2022-11-30T03:36:08.093Z,917.82
2022-11-30T03:37:07.443Z,917.80
2022-11-30T03:38:07.404Z,917.78
2022-11-30T03:39:07.453Z,917.78
2022-11-30T03:40:07.357Z,917.77
2022-11-30T03:41:07.407Z,917.75
2022-11-30T03:42:07.370Z,917.74
2022-11-30T03:43:07.414Z,917.74
2022-11-30T03:44:07.384Z,917.72
2022-11-30T03:45:07.392Z,917.70
2022-11-30T03:46:07.443Z,917.68
2022-11-30T03:47:07.340Z,917.65
2022-11-30T03:48:08.022Z,917.62
2022-11-30T03:49:07.328Z,917.60
2022-11-30T03:50:07.267Z,917.59
2022-11-30T03:51:07.267Z,917.59
2022-11-30T03:52:07.237Z,917.56
2022-11-30T03:53:07.279Z,917.55
2022-11-30T03:54:07.189Z,917.53
2022-11-30T03:55:07.661Z,917.49
2022-11-30T03:56:07.264Z,917.50
2022-11-30T03:57:07.263Z,917.46
2022-11-30T03:58:07.166Z,917.43
2022-11-30T03:59:07.837Z,917.42
2022-11-30T04:00:07.123Z,917.41
2022-11-30T04:01:07.189Z,917.40
2022-11-30T04:02:07.197Z,917.40
2022-11-30T04:03:07.178Z,917.41
2022-11-30T04:04:07.103Z,917.41
2022-11-30T04:05:07.399Z,917.42
2022-11-30T04:06:07.065Z,917.41
2022-11-30T04:07:07.138Z,917.40
2022-11-30T04:08:07.139Z,917.37
2022-11-30T04:09:07.112Z,917.34
2022-11-30T04:10:08.766Z,917.32
2022-11-30T04:11:07.100Z,917.33
2022-11-30T04:12:07.036Z,917.29
2022-11-30T04:13:07.145Z,917.27
2022-11-30T04:14:07.085Z,917.24
2022-11-30T04:15:07.080Z,917.24
2022-11-30T04:16:07.119Z,917.26
2022-11-30T04:17:06.965Z,917.24
2022-11-30T04:18:06.954Z,917.26
2022-11-30T04:19:07.066Z,917.28
2022-11-30T04:20:06.958Z,917.29
2022-11-30T04:21:06.964Z,917.29
2022-11-30T04:22:06.925Z,917.28
2022-11-30T04:23:07.008Z,917.27
2022-11-30T04:24:06.933Z,917.25
2022-11-30T04:25:06.893Z,917.22
2022-11-30T04:26:06.906Z,917.22
2022-11-30T04:27:06.957Z,917.22
2022-11-30T04:28:06.936Z,917.21
2022-11-30T04:29:06.882Z,917.19
2022-11-30T04:30:06.825Z,917.19
2022-11-30T04:31:06.887Z,917.18
2022-11-30T04:32:06.857Z,917.17
2022-11-30T04:33:06.892Z,917.15
2022-11-30T04:34:06.851Z,917.13
2022-11-30T04:35:06.804Z,917.10
2022-11-30T04:36:06.814Z,917.10
2022-11-30T04:37:06.831Z,917.08
2022-11-30T04:38:06.799Z,917.08
2022-11-30T04:39:06.801Z,917.05
2022-11-30T04:40:06.958Z,917.06
2022-11-30T04:41:06.713Z,917.05
2022-11-30T04:42:06.851Z,917.04
2022-11-30T04:43:06.758Z,917.03
2022-11-30T04:44:06.675Z,917.01
2022-11-30T04:45:06.844Z,917.01
2022-11-30T04:46:06.925Z,917.01
2022-11-30T04:47:06.787Z,917.00
2022-11-30T04:48:06.661Z,917.00
2022-11-30T04:49:06.804Z,916.98
2022-11-30T04:50:06.696Z,916.98
2022-11-30T04:51:06.714Z,916.98
2022-11-30T04:52:06.715Z,916.98
2022-11-30T04:53:06.588Z,916.95
2022-11-30T04:54:06.598Z,916.96
2022-11-30T04:55:06.625Z,916.92
2022-11-30T04:56:06.550Z,916.90
2022-11-30T04:57:06.612Z,916.88
2022-11-30T04:58:06.619Z,916.89
2022-11-30T04:59:06.521Z,916.87
2022-11-30T05:00:06.533Z,916.85
2022-11-30T05:01:06.520Z,916.83
2022-11-30T05:02:06.607Z,916.80
2022-11-30T05:03:06.550Z,916.77
2022-11-30T05:04:06.585Z,916.76
2022-11-30T05:05:06.460Z,916.72
2022-11-30T05:06:06.463Z,916.69
2022-11-30T05:07:06.474Z,916.71
2022-11-30T05:08:06.450Z,916.71
2022-11-30T05:09:06.491Z,916.72
2022-11-30T05:10:06.496Z,916.72
2022-11-30T05:11:06.370Z,916.72
2022-11-30T05:12:06.382Z,916.71
2022-11-30T05:13:06.382Z,916.71
2022-11-30T05:14:06.426Z,916.70
2022-11-30T05:15:06.360Z,916.69
2022-11-30T05:16:06.416Z,916.68
2022-11-30T05:17:06.340Z,916.67
2022-11-30T05:18:06.316Z,916.66
2022-11-30T05:19:06.420Z,916.66
2022-11-30T05:20:06.298Z,916.65
2022-11-30T05:21:06.394Z,916.64
2022-11-30T05:22:06.380Z,916.65
2022-11-30T05:23:06.276Z,916.64
2022-11-30T05:24:06.259Z,916.64
2022-11-30T05:25:06.728Z,916.63
2022-11-30T05:26:06.299Z,916.64
2022-11-30T05:27:12.742Z,916.63
2022-11-30T05:28:06.853Z,916.60
2022-11-30T05:29:06.245Z,916.61
2022-11-30T05:30:06.430Z,916.61
2022-11-30T05:31:06.837Z,916.60
2022-11-30T05:32:06.313Z,916.61
2022-11-30T05:33:07.314Z,916.61
2022-11-30T05:34:06.378Z,916.60
2022-11-30T05:35:06.194Z,916.60
2022-11-30T05:36:10.644Z,916.59
2022-11-30T05:37:06.242Z,916.61
2022-11-30T05:38:06.857Z,916.60
2022-11-30T05:39:06.249Z,916.60
2022-11-30T05:40:06.156Z,916.60
2022-11-30T05:41:06.125Z,916.60
2022-11-30T05:42:06.139Z,916.61
2022-11-30T05:43:06.284Z,916.59
2022-11-30T05:44:06.146Z,916.59
2022-11-30T05:45:06.158Z,916.60
2022-11-30T05:46:05.998Z,916.59
2022-11-30T05:47:06.200Z,916.59
2022-11-30T05:48:06.795Z,916.60
2022-11-30T05:49:06.105Z,916.58
2022-11-30T05:50:06.132Z,916.57
2022-11-30T05:51:06.081Z,916.55
2022-11-30T05:52:06.044Z,916.55
2022-11-30T05:53:06.011Z,916.54
2022-11-30T05:54:06.109Z,916.55
2022-11-30T05:55:06.055Z,916.55
2022-11-30T05:56:05.916Z,916.56
2022-11-30T05:57:05.927Z,916.59
2022-11-30T05:58:05.926Z,916.60
2022-11-30T05:59:06.169Z,916.62
2022-11-30T06:00:06.077Z,916.62
2022-11-30T06:01:06.400Z,916.62
2022-11-30T06:02:06.055Z,916.61
2022-11-30T06:03:06.008Z,916.63
2022-11-30T06:04:08.927Z,916.62
2022-11-30T06:05:05.872Z,916.66
2022-11-30T06:06:05.992Z,916.67
2022-11-30T06:07:05.929Z,916.69
2022-11-30T06:08:05.792Z,916.68
2022-11-30T06:09:06.854Z,916.68
2022-11-30T06:10:06.041Z,916.68
2022-11-30T06:11:05.845Z,916.67
2022-11-30T06:12:05.946Z,916.67
2022-11-30T06:13:05.856Z,916.65
2022-11-30T06:14:05.755Z,916.64
2022-11-30T06:15:05.767Z,916.64
2022-11-30T06:16:05.802Z,916.63
2022-11-30T06:17:05.781Z,916.63
2022-11-30T06:18:05.891Z,916.64
2022-11-30T06:19:05.795Z,916.67
2022-11-30T06:20:05.702Z,916.69
2022-11-30T06:21:05.704Z,916.71
2022-11-30T06:22:05.721Z,916.74
2022-11-30T06:23:05.720Z,916.73
2022-11-30T06:24:05.628Z,916.74
2022-11-30T06:25:05.734Z,916.72
2022-11-30T06:26:05.747Z,916.74
2022-11-30T06:27:05.640Z,916.75
2022-11-30T06:28:05.753Z,916.74
2022-11-30T06:29:05.753Z,916.73
2022-11-30T06:30:05.557Z,916.74
2022-11-30T06:31:05.769Z,916.75
2022-11-30T06:32:05.603Z,916.75
2022-11-30T06:33:05.602Z,916.76
2022-11-30T06:34:05.583Z,916.74
2022-11-30T06:35:05.586Z,916.74
2022-11-30T06:36:05.496Z,916.73
2022-11-30T06:37:06.217Z,916.75
2022-11-30T06:38:05.511Z,916.76
2022-11-30T06:39:05.454Z,916.79
2022-11-30T06:40:07.369Z,916.84
2022-11-30T06:41:05.532Z,916.86
2022-11-30T06:42:05.437Z,916.87
2022-11-30T06:43:05.471Z,916.88
2022-11-30T06:44:05.478Z,916.87
2022-11-30T06:45:05.682Z,916.87
2022-11-30T06:46:05.647Z,916.87
2022-11-30T06:47:05.387Z,916.89
2022-11-30T06:48:05.369Z,916.90
2022-11-30T06:49:05.376Z,916.92
2022-11-30T06:50:05.324Z,916.91
2022-11-30T06:51:05.407Z,916.91
2022-11-30T06:52:05.395Z,916.90
2022-11-30T06:53:05.302Z,916.91
2022-11-30T06:54:05.311Z,916.91
2022-11-30T06:55:05.711Z,916.91
2022-11-30T06:56:09.934Z,916.91
2022-11-30T06:57:05.311Z,916.93
2022-11-30T06:58:05.267Z,916.92
2022-11-30T06:59:05.263Z,916.91
2022-11-30T07:00:05.288Z,916.90
2022-11-30T07:01:05.703Z,916.90
2022-11-30T07:02:09.771Z,916.90
2022-11-30T07:03:05.258Z,916.90
2022-11-30T07:04:05.318Z,916.92
2022-11-30T07:05:05.204Z,916.92
2022-11-30T07:06:05.179Z,916.93
2022-11-30T07:07:05.223Z,916.92
2022-11-30T07:08:05.184Z,916.91
2022-11-30T07:09:05.194Z,916.88
2022-11-30T07:10:05.200Z,916.87
2022-11-30T07:11:05.143Z,916.87
2022-11-30T07:12:05.157Z,916.87
2022-11-30T07:13:05.163Z,916.88
2022-11-30T07:14:05.114Z,916.90
2022-11-30T07:15:05.122Z,916.93
2022-11-30T07:16:05.178Z,916.96
2022-11-30T07:17:05.095Z,916.99
2022-11-30T07:18:05.038Z,917.02
2022-11-30T07:19:05.046Z,917.05
2022-11-30T07:20:04.999Z,917.05
2022-11-30T07:21:05.018Z,917.05
2022-11-30T07:22:05.730Z,917.05
2022-11-30T07:23:04.978Z,917.04
2022-11-30T07:24:04.981Z,917.03
2022-11-30T07:25:04.992Z,917.02
2022-11-30T07:26:04.942Z,917.03
2022-11-30T07:27:05.829Z,917.04
2022-11-30T07:28:05.051Z,917.07
2022-11-30T07:29:04.911Z,917.08
2022-11-30T07:30:05.027Z,917.08
2022-11-30T07:31:04.974Z,917.09
2022-11-30T07:32:05.010Z,917.10
2022-11-30T07:33:04.973Z,917.10
2022-11-30T07:34:04.994Z,917.12
2022-11-30T07:35:04.955Z,917.14
2022-11-30T07:36:04.999Z,917.16
2022-11-30T07:37:05.000Z,917.18
2022-11-30T07:38:09.645Z,917.20
2022-11-30T07:39:04.889Z,917.21
2022-11-30T07:40:04.918Z,917.21
2022-11-30T07:41:04.896Z,917.19
2022-11-30T07:42:04.900Z,917.20
2022-11-30T07:43:05.355Z,917.20
2022-11-30T07:44:04.807Z,917.20
2022-11-30T07:45:04.853Z,917.21
2022-11-30T07:46:04.935Z,917.24
2022-11-30T07:47:04.774Z,917.27
2022-11-30T07:48:04.870Z,917.28
2022-11-30T07:49:04.894Z,917.32
2022-11-30T07:50:04.757Z,917.32
2022-11-30T07:51:04.799Z,917.33
2022-11-30T07:52:04.795Z,917.31
2022-11-30T07:53:04.808Z,917.32
2022-11-30T07:54:04.806Z,917.33
2022-11-30T07:55:04.818Z,917.35
2022-11-30T07:56:04.727Z,917.38
2022-11-30T07:57:04.727Z,917.41
2022-11-30T07:58:04.732Z,917.43
2022-11-30T07:59:04.736Z,917.45
2022-11-30T08:00:04.648Z,917.46
2022-11-30T08:01:05.012Z,917.47
2022-11-30T08:02:04.814Z,917.48
2022-11-30T08:03:04.659Z,917.49
2022-11-30T08:04:04.865Z,917.51
2022-11-30T08:05:04.627Z,917.52
2022-11-30T08:06:04.573Z,917.55
2022-11-30T08:07:04.589Z,917.58
2022-11-30T08:08:04.700Z,917.57
2022-11-30T08:09:05.208Z,917.57
2022-11-30T08:10:04.499Z,917.57
2022-11-30T08:11:04.609Z,917.59
2022-11-30T08:12:04.625Z,917.60
2022-11-30T08:13:04.521Z,917.61
2022-11-30T08:14:05.246Z,917.62
2022-11-30T08:15:19.808Z,917.67
2022-11-30T08:16:04.438Z,917.70
2022-11-30T08:17:04.476Z,917.73
2022-11-30T08:18:04.560Z,917.73
2022-11-30T08:19:04.558Z,917.74
2022-11-30T08:20:04.461Z,917.77
2022-11-30T08:21:04.486Z,917.81
2022-11-30T08:22:04.376Z,917.81
2022-11-30T08:23:04.390Z,917.79
2022-11-30T08:24:04.493Z,917.79
2022-11-30T08:25:04.402Z,917.79
2022-11-30T08:26:04.411Z,917.80
2022-11-30T08:27:04.411Z,917.82
2022-11-30T08:28:04.319Z,917.82
2022-11-30T08:29:04.332Z,917.81
2022-11-30T08:30:04.344Z,917.81
2022-11-30T08:31:04.402Z,917.82
2022-11-30T08:32:04.458Z,917.85
2022-11-30T08:33:04.343Z,917.85
2022-11-30T08:34:04.218Z,917.86
2022-11-30T08:35:04.327Z,917.87
2022-11-30T08:36:04.239Z,917.89
2022-11-30T08:37:04.238Z,917.88
2022-11-30T08:38:04.239Z,917.87
2022-11-30T08:39:04.189Z,917.87
2022-11-30T08:40:04.769Z,917.88
2022-11-30T08:41:04.214Z,917.90
2022-11-30T08:42:04.371Z,917.91
2022-11-30T08:43:04.270Z,917.92
2022-11-30T08:44:04.129Z,917.94
2022-11-30T08:45:04.499Z,917.94
2022-11-30T08:46:21.245Z,917.95
2022-11-30T08:47:04.253Z,917.94
2022-11-30T08:48:04.869Z,917.95
2022-11-30T08:50:04.115Z,917.99
2022-11-30T08:51:04.122Z,917.99
2022-11-30T08:52:19.586Z,918.02
2022-11-30T08:53:06.544Z,918.03
2022-11-30T08:54:04.144Z,918.02
2022-11-30T08:55:04.457Z,918.02
2022-11-30T08:56:04.722Z,918.02
2022-11-30T08:57:04.010Z,918.03
2022-11-30T08:58:04.063Z,918.03
2022-11-30T08:59:04.174Z,918.03
2022-11-30T09:00:04.491Z,918.03
2022-11-30T09:01:05.106Z,918.02
2022-11-30T09:02:04.088Z,918.01
2022-11-30T09:03:04.034Z,918.01
2022-11-30T09:04:04.000Z,918.00
2022-11-30T09:05:05.047Z,918.00
2022-11-30T09:06:03.926Z,918.00
2022-11-30T09:07:04.020Z,918.01
2022-11-30T09:08:03.978Z,918.02
2022-11-30T09:09:03.929Z,918.03
2022-11-30T09:10:03.934Z,918.04
2022-11-30T09:11:04.053Z,918.04
2022-11-30T09:12:03.850Z,918.05
2022-11-30T09:13:03.956Z,918.05
2022-11-30T09:14:03.964Z,918.04
2022-11-30T09:15:03.863Z,918.05
2022-11-30T09:16:04.034Z,918.07
2022-11-30T09:17:03.892Z,918.08
2022-11-30T09:18:03.885Z,918.09
2022-11-30T09:19:04.817Z,918.09
2022-11-30T09:20:03.901Z,918.11
2022-11-30T09:21:03.806Z,918.14
2022-11-30T09:22:04.943Z,918.17
2022-11-30T09:23:03.820Z,918.19
2022-11-30T09:24:03.826Z,918.20
2022-11-30T09:25:03.834Z,918.21
2022-11-30T09:26:03.844Z,918.24
2022-11-30T09:27:03.751Z,918.27
2022-11-30T09:28:09.308Z,918.29
2022-11-30T09:29:03.767Z,918.31
2022-11-30T09:30:03.674Z,918.34
2022-11-30T09:31:04.002Z,918.36
2022-11-30T09:32:03.688Z,918.39
2022-11-30T09:33:03.999Z,918.39
2022-11-30T09:34:03.699Z,918.40
2022-11-30T09:35:03.709Z,918.44
2022-11-30T09:36:03.630Z,918.45
2022-11-30T09:37:03.762Z,918.46
2022-11-30T09:38:03.818Z,918.48
2022-11-30T09:39:03.733Z,918.50
2022-11-30T09:40:03.635Z,918.52
2022-11-30T09:41:03.666Z,918.53
2022-11-30T09:42:03.553Z,918.54
2022-11-30T09:43:03.563Z,918.56
2022-11-30T09:44:03.673Z,918.60
2022-11-30T09:45:03.818Z,918.62
2022-11-30T09:46:03.641Z,918.65
2022-11-30T09:47:03.459Z,918.68
2022-11-30T09:48:03.482Z,918.69
2022-11-30T09:49:03.591Z,918.68
2022-11-30T09:50:03.493Z,918.68
2022-11-30T09:51:04.531Z,918.69
2022-11-30T09:52:03.528Z,918.71
2022-11-30T09:53:03.693Z,918.72
2022-11-30T09:54:03.412Z,918.73
2022-11-30T09:55:03.562Z,918.76
2022-11-30T09:56:04.239Z,918.78
2022-11-30T09:57:04.554Z,918.80
2022-11-30T09:58:03.438Z,918.80
2022-11-30T09:59:03.681Z,918.81
2022-11-30T10:00:03.345Z,918.83
2022-11-30T10:01:06.824Z,918.84
2022-11-30T10:02:04.155Z,918.86
2022-11-30T10:03:03.880Z,918.86
2022-11-30T10:04:03.271Z,918.87
2022-11-30T10:05:03.284Z,918.87
2022-11-30T10:06:03.281Z,918.87
2022-11-30T10:07:03.305Z,918.87
2022-11-30T10:08:03.373Z,918.89
2022-11-30T10:09:03.305Z,918.91
2022-11-30T10:10:30.419Z,918.94
2022-11-30T10:11:03.252Z,918.97
2022-11-30T10:12:03.231Z,918.99
2022-11-30T10:13:03.233Z,919.01
2022-11-30T10:14:03.235Z,919.02
2022-11-30T10:15:03.242Z,919.04
2022-11-30T10:16:03.866Z,919.06
2022-11-30T10:17:03.201Z,919.07
2022-11-30T10:18:03.158Z,919.08
2022-11-30T10:19:03.165Z,919.09
2022-11-30T10:20:03.208Z,919.10
2022-11-30T10:21:03.075Z,919.11
2022-11-30T10:22:03.121Z,919.13
2022-11-30T10:23:03.121Z,919.15
2022-11-30T10:24:03.237Z,919.16
2022-11-30T10:25:08.589Z,919.18
2022-11-30T10:26:04.446Z,919.21
2022-11-30T10:27:03.117Z,919.22
2022-11-30T10:28:17.991Z,919.24
2022-11-30T10:29:03.052Z,919.25
2022-11-30T10:30:03.030Z,919.27
2022-11-30T10:31:03.431Z,919.29
2022-11-30T10:32:03.048Z,919.31
2022-11-30T10:33:03.051Z,919.32
2022-11-30T10:34:02.952Z,919.34
2022-11-30T10:35:02.963Z,919.37
2022-11-30T10:36:02.966Z,919.38
2022-11-30T10:37:03.313Z,919.39
2022-11-30T10:38:03.086Z,919.39
2022-11-30T10:39:03.019Z,919.40
2022-11-30T10:40:02.895Z,919.41
2022-11-30T10:41:02.907Z,919.43
2022-11-30T10:42:02.845Z,919.44
2022-11-30T10:43:02.914Z,919.44
2022-11-30T10:44:02.854Z,919.45
2022-11-30T10:45:02.828Z,919.46
2022-11-30T10:46:02.945Z,919.48
2022-11-30T10:47:02.836Z,919.50
2022-11-30T10:48:02.846Z,919.51
2022-11-30T10:49:02.960Z,919.53
2022-11-30T10:50:02.864Z,919.51
2022-11-30T10:51:02.779Z,919.51
2022-11-30T10:52:02.770Z,919.51
2022-11-30T10:53:04.143Z,919.52
2022-11-30T10:54:03.394Z,919.53
2022-11-30T10:55:05.360Z,919.54
2022-11-30T10:56:02.799Z,919.56
2022-11-30T10:57:02.732Z,919.57
2022-11-30T10:58:02.714Z,919.55
2022-11-30T10:59:02.746Z,919.53
2022-11-30T11:00:05.102Z,919.53
2022-11-30T11:01:03.724Z,919.54
2022-11-30T11:02:03.661Z,919.54
2022-11-30T11:03:02.709Z,919.55
2022-11-30T11:04:02.723Z,919.57
2022-11-30T11:05:02.761Z,919.59
2022-11-30T11:06:02.723Z,919.59
2022-11-30T11:07:02.781Z,919.59
2022-11-30T11:08:06.726Z,919.59
2022-11-30T11:09:02.699Z,919.58
2022-11-30T11:10:02.798Z,919.59
2022-11-30T11:11:02.711Z,919.59
2022-11-30T11:12:02.619Z,919.61
2022-11-30T11:13:02.641Z,919.61
2022-11-30T11:14:02.532Z,919.61
2022-11-30T11:15:02.480Z,919.63
2022-11-30T11:16:02.655Z,919.65
2022-11-30T11:17:02.554Z,919.68
2022-11-30T11:18:02.558Z,919.72
2022-11-30T11:19:02.511Z,919.77
2022-11-30T11:20:02.519Z,919.83
2022-11-30T11:21:05.873Z,919.84
2022-11-30T11:22:02.494Z,919.87
2022-11-30T11:23:02.486Z,919.89
2022-11-30T11:24:02.613Z,919.88
2022-11-30T11:25:02.503Z,919.88
2022-11-30T11:26:02.410Z,919.89
2022-11-30T11:27:02.362Z,919.90
2022-11-30T11:28:03.341Z,919.92
2022-11-30T11:29:02.380Z,919.93
2022-11-30T11:30:02.458Z,919.94
2022-11-30T11:31:02.388Z,919.97
2022-11-30T11:32:02.290Z,919.98
2022-11-30T11:33:02.345Z,919.98
2022-11-30T11:34:02.385Z,919.99
2022-11-30T11:35:02.400Z,920.01
2022-11-30T11:36:02.480Z,920.00
2022-11-30T11:37:02.288Z,920.02
2022-11-30T11:38:02.390Z,920.01
2022-11-30T11:39:02.236Z,920.02
2022-11-30T11:40:02.323Z,920.02
2022-11-30T11:41:02.302Z,920.03
2022-11-30T11:42:02.226Z,920.03
2022-11-30T11:43:02.314Z,920.05
2022-11-30T11:44:02.165Z,920.05
2022-11-30T11:45:02.387Z,920.06
2022-11-30T11:46:02.306Z,920.07
2022-11-30T11:47:02.184Z,920.07
2022-11-30T11:48:02.152Z,920.09
2022-11-30T11:49:02.255Z,920.08
2022-11-30T11:50:03.029Z,920.08
2022-11-30T11:51:07.136Z,920.10
2022-11-30T11:52:02.163Z,920.10
2022-11-30T11:53:02.127Z,920.10
2022-11-30T11:54:02.109Z,920.11
2022-11-30T11:55:02.103Z,920.11
2022-11-30T11:56:02.103Z,920.09
2022-11-30T11:57:02.111Z,920.10
2022-11-30T11:58:02.112Z,920.09
2022-11-30T11:59:02.119Z,920.10
2022-11-30T12:00:02.047Z,920.09
2022-11-30T12:01:31.468Z,920.06
2022-11-30T12:02:11.373Z,920.05
2022-11-30T12:03:09.856Z,920.03
2022-11-30T12:04:02.874Z,920.02
2022-11-30T12:05:02.082Z,920.01
2022-11-30T12:06:01.975Z,920.03
2022-11-30T12:07:02.082Z,920.03
2022-11-30T12:08:02.135Z,920.03
2022-11-30T12:09:01.992Z,920.04
2022-11-30T12:10:02.016Z,920.03
2022-11-30T12:11:02.010Z,920.05
2022-11-30T12:12:01.928Z,920.04
2022-11-30T12:13:01.937Z,920.06
2022-11-30T12:14:01.937Z,920.05
2022-11-30T12:15:02.676Z,920.06
2022-11-30T12:16:02.015Z,920.06
2022-11-30T12:17:01.957Z,920.06
2022-11-30T12:18:02.004Z,920.06
2022-11-30T12:19:01.981Z,920.04
2022-11-30T12:20:01.902Z,920.04
2022-11-30T12:21:01.804Z,920.04
2022-11-30T12:22:01.874Z,920.03
2022-11-30T12:23:02.615Z,920.02
2022-11-30T12:24:01.898Z,920.01
2022-11-30T12:25:05.923Z,920.01
2022-11-30T12:26:01.803Z,920.03
2022-11-30T12:27:01.817Z,920.03
2022-11-30T12:28:01.824Z,920.05
2022-11-30T12:29:01.825Z,920.05